KTTN/TTN METAR and TAF weather

Enter ICAO airport designator
Station Type Date Time Source
KTTN METAR 2019/10/22 17:06 UTC NOAA

KTTN 221706Z 11010KT 3SM BR OVC004 16/16 A2994 RMK AO2 T01560156


Station Type Date Time Source
KTTN Decoded METAR 2019/10/22 17:06 UTC NOAA

TRENTON MERCER COUNTY AIRPORT , NJ, United States (KTTN) 40-17N 074-49W 59M
Oct 22, 2019 - 01:06 PM EDT / 2019.10.22 1706 UTC
Wind: from the ESE (110 degrees) at 12 MPH (10 KT):0
Visibility: 3 mile(s):0
Sky conditions: overcast
Weather: mist
Temperature: 60.1 F (15.6 C)
Dew Point: 60.1 F (15.6 C)
Relative Humidity: 100%
Pressure (altimeter): 29.94 in. Hg (1013 hPa)
ob: KTTN 221706Z 11010KT 3SM BR OVC004 16/16 A2994 RMK AO2 T01560156
cycle: 17

Station Type Date Time Source
KTTN TAF 2019/10/22 15:36 UTC NOAA

TAF
AMD KTTN 221434Z 2215/2312 09005KT 5SM BR OVC006
TEMPO 2215/2217 2SM BR OVC004
FM222000 12008KT 6SM -RA BR OVC009
FM222300 13006KT 3SM RA BR OVC005
FM230400 29008KT 6SM -RA BR BKN025
FM230700 29010KT P6SM SCT040

Example: see airport list